createdAt,value
2022-11-22T00:01:27.420Z,9.50
2022-11-22T00:03:53.930Z,7.60
2022-11-22T00:06:20.464Z,5.27
2022-11-22T00:08:46.897Z,11.60
2022-11-22T00:11:13.438Z,4.23
2022-11-22T00:13:39.960Z,7.70
2022-11-22T00:16:06.470Z,7.47
2022-11-22T00:18:33.002Z,8.63
2022-11-22T00:21:05.088Z,7.50
2022-11-22T00:23:31.556Z,11.77
2022-11-22T00:25:58.083Z,6.30
2022-11-22T00:28:24.654Z,15.93
2022-11-22T00:30:51.114Z,5.90
2022-11-22T00:33:17.668Z,8.13
2022-11-22T00:35:46.323Z,5.87
2022-11-22T00:38:12.970Z,13.43
2022-11-22T00:40:39.678Z,18.37
2022-11-22T00:43:06.139Z,9.83
2022-11-22T00:45:32.602Z,10.73
2022-11-22T00:47:59.071Z,8.60
2022-11-22T00:50:25.569Z,7.93
2022-11-22T00:52:52.109Z,6.13
2022-11-22T00:55:18.578Z,5.33
2022-11-22T00:57:45.099Z,8.97
2022-11-22T01:00:12.083Z,8.77
2022-11-22T01:02:38.775Z,7.53
2022-11-22T01:05:05.661Z,8.33
2022-11-22T01:07:32.249Z,9.20
2022-11-22T01:09:58.770Z,6.87
2022-11-22T01:12:25.480Z,8.40
2022-11-22T01:14:52.020Z,6.87
2022-11-22T01:17:18.634Z,8.47
2022-11-22T01:19:45.800Z,6.87
2022-11-22T01:22:12.341Z,6.83
2022-11-22T01:24:39.162Z,8.73
2022-11-22T01:27:06.026Z,10.83
2022-11-22T01:29:32.682Z,12.77
2022-11-22T01:31:59.401Z,5.83
2022-11-22T01:34:27.425Z,7.77
2022-11-22T01:36:53.923Z,8.77
2022-11-22T01:39:20.504Z,4.83
2022-11-22T01:41:47.059Z,8.30
2022-11-22T01:44:27.105Z,7.70
2022-11-22T01:47:24.028Z,8.10
2022-11-22T01:50:03.546Z,8.00
2022-11-22T01:52:32.687Z,5.40
2022-11-22T01:55:04.977Z,10.23
2022-11-22T01:57:33.727Z,7.00
2022-11-22T02:00:08.085Z,7.70
2022-11-22T02:02:35.295Z,5.70
2022-11-22T02:05:10.123Z,5.37
2022-11-22T02:07:50.130Z,7.80
2022-11-22T02:10:18.957Z,7.80
2022-11-22T02:12:45.575Z,9.23
2022-11-22T02:15:12.557Z,6.87
2022-11-22T02:17:39.096Z,9.47
2022-11-22T02:20:07.145Z,12.13
2022-11-22T02:22:36.630Z,7.07
2022-11-22T02:25:30.228Z,8.80
2022-11-22T02:27:56.883Z,9.60
2022-11-22T02:30:23.734Z,7.07
2022-11-22T02:32:50.408Z,2.73
2022-11-22T02:35:19.538Z,3.13
2022-11-22T02:37:46.737Z,13.40
2022-11-22T02:40:15.195Z,11.90
2022-11-22T02:42:47.027Z,6.13
2022-11-22T02:45:13.554Z,10.90
2022-11-22T02:47:40.213Z,12.40
2022-11-22T02:50:07.117Z,12.43
2022-11-22T02:52:33.602Z,9.13
2022-11-22T02:55:00.128Z,5.33
2022-11-22T02:57:26.689Z,4.23
2022-11-22T02:59:53.298Z,5.60
2022-11-22T03:02:19.747Z,8.70
2022-11-22T03:04:46.526Z,6.23
2022-11-22T03:07:13.072Z,7.87
2022-11-22T03:09:39.577Z,12.40
2022-11-22T03:12:06.264Z,3.80
2022-11-22T03:14:32.741Z,4.87
2022-11-22T03:16:59.286Z,7.80
2022-11-22T03:19:25.858Z,7.23
2022-11-22T03:21:52.380Z,4.97
2022-11-22T03:24:20.255Z,4.80
2022-11-22T03:26:48.532Z,7.17
2022-11-22T03:29:15.634Z,9.60
2022-11-22T03:31:42.133Z,9.60
2022-11-22T03:34:09.092Z,10.63
2022-11-22T03:36:35.691Z,7.17
2022-11-22T03:39:02.201Z,6.50
2022-11-22T03:41:28.744Z,11.60
2022-11-22T03:43:55.312Z,5.47
2022-11-22T03:46:21.754Z,4.27
2022-11-22T03:48:48.344Z,11.87
2022-11-22T03:51:14.868Z,5.27
2022-11-22T03:53:41.605Z,7.03
2022-11-22T03:56:08.217Z,5.67
2022-11-22T03:58:34.784Z,19.03
2022-11-22T04:01:01.942Z,4.10
2022-11-22T04:03:28.588Z,10.40
2022-11-22T04:05:55.106Z,10.37
2022-11-22T04:08:21.739Z,9.53
2022-11-22T04:10:49.480Z,8.17
2022-11-22T04:13:16.290Z,8.40
2022-11-22T04:15:42.801Z,12.90
2022-11-22T04:18:10.811Z,10.17
2022-11-22T04:20:56.290Z,19.80
2022-11-22T04:23:25.411Z,5.30
2022-11-22T04:25:55.490Z,12.20
2022-11-22T04:29:08.125Z,9.03
2022-11-22T04:31:30.938Z,9.23
2022-11-22T04:33:57.439Z,12.17
2022-11-22T04:36:23.929Z,5.13
2022-11-22T04:38:50.361Z,7.37
2022-11-22T04:41:16.928Z,10.83
2022-11-22T04:44:01.986Z,8.67
2022-11-22T04:46:28.482Z,7.70
2022-11-22T04:48:54.914Z,4.30
2022-11-22T04:51:39.983Z,5.07
2022-11-22T04:54:06.468Z,8.63
2022-11-22T04:56:33.020Z,12.27
2022-11-22T04:58:59.572Z,7.43
2022-11-22T05:01:26.103Z,7.50
2022-11-22T05:03:52.708Z,14.20
2022-11-22T05:06:19.226Z,29.53
2022-11-22T05:08:45.724Z,14.00
2022-11-22T05:11:12.260Z,17.50
2022-11-22T05:13:40.747Z,5.40
2022-11-22T05:16:10.698Z,8.57
2022-11-22T05:18:37.444Z,6.93
2022-11-22T05:21:12.213Z,6.10
2022-11-22T05:23:57.020Z,6.27
2022-11-22T05:26:32.009Z,7.87
2022-11-22T05:28:59.352Z,13.83
2022-11-22T05:31:27.579Z,9.93
2022-11-22T05:33:56.120Z,10.77
2022-11-22T05:36:23.804Z,14.27
2022-11-22T05:38:50.489Z,15.17
2022-11-22T05:41:17.328Z,8.40
2022-11-22T05:43:44.383Z,19.00
2022-11-22T05:46:30.485Z,19.80
2022-11-22T05:48:58.279Z,10.93
2022-11-22T05:51:32.494Z,9.20
2022-11-22T05:54:00.886Z,12.30
2022-11-22T05:56:27.358Z,13.20
2022-11-22T05:58:53.924Z,12.47
2022-11-22T06:01:23.183Z,15.50
2022-11-22T06:03:50.495Z,23.83
2022-11-22T06:06:17.501Z,15.33
2022-11-22T06:08:46.907Z,20.40
2022-11-22T06:11:22.417Z,13.80
2022-11-22T06:13:50.950Z,18.03
2022-11-22T06:16:17.664Z,12.10
2022-11-22T06:18:44.382Z,11.10
2022-11-22T06:21:16.247Z,9.30
2022-11-22T06:23:43.010Z,15.80
2022-11-22T06:26:12.517Z,11.53
2022-11-22T06:28:39.745Z,15.27
2022-11-22T06:31:14.419Z,9.43
2022-11-22T06:33:41.874Z,10.90
2022-11-22T06:36:13.425Z,8.03
2022-11-22T06:38:41.187Z,16.43
2022-11-22T06:41:16.642Z,10.93
2022-11-22T06:43:48.581Z,18.63
2022-11-22T06:46:19.857Z,13.77
2022-11-22T06:48:46.962Z,18.60
2022-11-22T06:51:19.000Z,17.93
2022-11-22T06:53:48.617Z,12.57
2022-11-22T06:56:36.193Z,12.20
2022-11-22T06:59:04.699Z,10.73
2022-11-22T07:01:32.640Z,18.40
2022-11-22T07:04:00.200Z,12.50
2022-11-22T07:06:28.951Z,16.47
2022-11-22T07:08:55.591Z,14.90
2022-11-22T07:11:24.378Z,13.70
2022-11-22T07:13:51.116Z,10.83
2022-11-22T07:16:19.874Z,12.80
2022-11-22T07:18:46.890Z,8.80
2022-11-22T07:21:15.482Z,9.00
2022-11-22T07:23:43.433Z,11.17
2022-11-22T07:26:10.899Z,13.97
2022-11-22T07:28:38.035Z,12.73
2022-11-22T07:31:06.805Z,14.87
2022-11-22T07:33:33.545Z,20.37
2022-11-22T07:36:08.214Z,12.80
2022-11-22T07:38:34.937Z,10.60
2022-11-22T07:41:01.929Z,24.10
2022-11-22T07:43:28.871Z,27.43
2022-11-22T07:46:03.076Z,25.03
2022-11-22T07:48:29.714Z,12.27
2022-11-22T07:50:56.259Z,24.07
2022-11-22T07:53:23.314Z,14.07
2022-11-22T07:55:49.883Z,20.10
2022-11-22T07:58:16.357Z,15.80
2022-11-22T08:00:42.808Z,19.63
2022-11-22T08:03:09.351Z,13.73
2022-11-22T08:05:35.851Z,9.17
2022-11-22T08:08:02.307Z,16.83
2022-11-22T08:10:28.934Z,24.00
2022-11-22T08:12:58.910Z,15.00
2022-11-22T08:15:25.626Z,19.13
2022-11-22T08:17:52.215Z,15.17
2022-11-22T08:20:18.838Z,13.13
2022-11-22T08:22:45.384Z,15.87
2022-11-22T08:25:14.923Z,19.20
2022-11-22T08:27:42.799Z,13.20
2022-11-22T08:30:12.352Z,13.40
2022-11-22T08:32:38.915Z,10.63
2022-11-22T08:35:05.868Z,20.20
2022-11-22T08:37:32.319Z,15.60
2022-11-22T08:39:58.790Z,15.27
2022-11-22T08:42:25.206Z,15.07
2022-11-22T08:44:51.742Z,23.70
2022-11-22T08:47:18.325Z,13.20
2022-11-22T08:49:44.851Z,17.83
2022-11-22T08:52:11.370Z,16.47
2022-11-22T08:54:38.345Z,18.47
2022-11-22T08:57:05.135Z,13.43
2022-11-22T08:59:32.051Z,16.30
2022-11-22T09:01:58.919Z,16.90
2022-11-22T09:04:25.520Z,19.73
2022-11-22T09:09:38.726Z,12.57
2022-11-22T09:12:05.571Z,10.03
2022-11-22T09:14:32.106Z,9.80
2022-11-22T09:16:58.655Z,13.50
2022-11-22T09:19:25.701Z,20.73
2022-11-22T09:21:52.227Z,13.33
2022-11-22T09:24:18.781Z,17.30
2022-11-22T09:26:45.331Z,9.90
2022-11-22T09:29:11.921Z,13.70
2022-11-22T09:31:38.708Z,12.83
2022-11-22T09:34:05.154Z,12.00
2022-11-22T09:36:31.806Z,17.13
2022-11-22T09:38:58.379Z,20.27
2022-11-22T09:41:49.599Z,20.30
2022-11-22T09:44:33.752Z,15.63
2022-11-22T09:47:11.083Z,19.43
2022-11-22T09:49:52.962Z,10.70
2022-11-22T09:52:32.058Z,18.33
2022-11-22T09:55:10.070Z,20.97
2022-11-22T09:57:46.087Z,18.63
2022-11-22T10:00:25.919Z,10.73
2022-11-22T10:03:01.062Z,18.00
2022-11-22T10:05:34.821Z,378.50
2022-11-22T10:08:29.868Z,447.87
2022-11-22T10:10:58.539Z,353.83
2022-11-22T10:13:43.846Z,50.33
2022-11-22T10:16:18.532Z,28.43
2022-11-22T10:19:27.750Z,24.00
2022-11-22T10:21:54.354Z,60.93
2022-11-22T10:24:20.878Z,41.53
2022-11-22T10:26:47.892Z,93.87
2022-11-22T10:29:41.008Z,41.80
2022-11-22T10:32:19.276Z,22.33
2022-11-22T10:34:57.511Z,13.30
2022-11-22T10:38:14.878Z,15.53
2022-11-22T10:40:52.181Z,21.57
2022-11-22T10:43:26.439Z,11.63
2022-11-22T10:46:24.225Z,12.50
2022-11-22T10:49:32.352Z,20.10
2022-11-22T10:52:06.716Z,14.47
2022-11-22T10:54:59.196Z,17.20
2022-11-22T10:57:25.702Z,13.70
2022-11-22T11:00:17.569Z,15.67
2022-11-22T11:02:47.019Z,13.67
2022-11-22T11:05:16.620Z,10.27
2022-11-22T11:07:47.851Z,13.27
2022-11-22T11:10:29.198Z,15.50
2022-11-22T11:13:03.375Z,18.17
2022-11-22T11:15:43.200Z,14.13
2022-11-22T11:18:17.225Z,12.50
2022-11-22T11:20:43.972Z,7.33
2022-11-22T11:23:15.466Z,12.70
2022-11-22T11:25:47.491Z,9.73
2022-11-22T11:28:24.943Z,8.77
2022-11-22T11:30:56.945Z,10.90
2022-11-22T11:33:32.194Z,17.23
2022-11-22T11:36:13.671Z,13.43
2022-11-22T11:38:43.400Z,12.87
2022-11-22T11:41:24.067Z,17.67
2022-11-22T11:43:55.532Z,17.33
2022-11-22T11:46:25.116Z,18.43
2022-11-22T11:48:56.275Z,16.27
2022-11-22T11:51:36.535Z,17.43
2022-11-22T11:54:10.007Z,10.50
2022-11-22T11:56:47.010Z,16.57
2022-11-22T11:59:16.189Z,12.20
2022-11-22T12:01:49.261Z,13.60
2022-11-22T12:04:31.513Z,8.70
2022-11-22T12:07:03.637Z,16.57
2022-11-22T12:09:36.223Z,11.60
2022-11-22T12:12:09.478Z,11.37
2022-11-22T12:15:09.139Z,6.43
2022-11-22T12:17:27.759Z,11.53
2022-11-22T12:20:02.167Z,8.80
2022-11-22T12:22:50.284Z,9.90
2022-11-22T12:25:38.034Z,11.00
2022-11-22T12:28:24.833Z,11.50
2022-11-22T12:31:15.490Z,9.87
2022-11-22T12:33:44.331Z,10.73
2022-11-22T12:36:32.461Z,8.47
2022-11-22T12:39:02.067Z,6.57
2022-11-22T12:41:28.898Z,5.07
2022-11-22T12:43:58.714Z,6.90
2022-11-22T12:46:40.880Z,9.90
2022-11-22T12:49:25.736Z,17.07
2022-11-22T12:52:04.190Z,8.73
2022-11-22T12:54:39.952Z,25.10
2022-11-22T12:57:13.352Z,18.50
2022-11-22T13:00:09.259Z,11.50
2022-11-22T13:03:02.122Z,12.57
2022-11-22T13:05:40.989Z,17.93
2022-11-22T13:08:21.488Z,14.13
2022-11-22T13:10:58.431Z,8.37
2022-11-22T13:13:28.551Z,8.77
2022-11-22T13:15:56.919Z,16.03
2022-11-22T13:18:28.501Z,10.10
2022-11-22T13:21:14.616Z,16.50
2022-11-22T13:24:12.680Z,15.00
2022-11-22T13:26:45.664Z,17.40
2022-11-22T13:29:24.233Z,16.73
2022-11-22T13:32:12.181Z,16.07
2022-11-22T13:34:59.166Z,14.93
2022-11-22T13:37:26.480Z,12.87
2022-11-22T13:39:53.214Z,17.13
2022-11-22T13:42:24.058Z,9.77
2022-11-22T13:44:56.761Z,14.10
2022-11-22T13:47:23.216Z,17.70
2022-11-22T13:49:53.956Z,17.40
2022-11-22T13:52:20.971Z,27.53
2022-11-22T13:54:47.458Z,19.37
2022-11-22T13:57:27.595Z,20.37
2022-11-22T14:00:18.673Z,16.60
2022-11-22T14:02:49.430Z,13.90
2022-11-22T14:05:23.181Z,11.53
2022-11-22T14:07:51.325Z,19.07
2022-11-22T14:10:32.321Z,16.23
2022-11-22T14:13:32.085Z,16.73
2022-11-22T14:16:19.553Z,14.57
2022-11-22T14:18:53.664Z,16.17
2022-11-22T14:21:39.033Z,23.57
2022-11-22T14:24:20.792Z,32.23
2022-11-22T14:26:53.304Z,22.50
2022-11-22T14:29:35.296Z,16.40
2022-11-22T14:32:14.281Z,12.30
2022-11-22T14:35:05.659Z,14.00
2022-11-22T14:37:32.466Z,9.50
2022-11-22T14:40:02.015Z,14.07
2022-11-22T14:42:37.248Z,18.27
2022-11-22T14:45:12.598Z,16.47
2022-11-22T14:47:52.362Z,19.87
2022-11-22T14:50:39.306Z,17.43
2022-11-22T14:53:34.989Z,15.47
2022-11-22T14:56:17.621Z,17.93
2022-11-22T14:59:26.015Z,22.17
2022-11-22T15:02:05.615Z,24.83
2022-11-22T15:09:18.821Z,17.97
2022-11-22T15:09:26.419Z,14.47
2022-11-22T15:11:23.582Z,17.87
2022-11-22T15:14:20.794Z,18.47
2022-11-22T15:59:40.691Z,18.93
2022-11-22T16:02:14.654Z,28.53
2022-11-22T16:06:07.121Z,22.03
2022-11-22T16:07:54.962Z,16.57
2022-11-22T16:10:33.188Z,17.90
2022-11-22T16:13:11.291Z,21.87
2022-11-22T16:15:38.039Z,48.93
2022-11-22T16:18:10.459Z,35.73
2022-11-22T16:20:38.526Z,31.90
2022-11-22T16:23:11.941Z,45.20
2022-11-22T16:25:39.542Z,33.70
2022-11-22T16:28:28.358Z,20.73
2022-11-22T16:30:59.854Z,24.40
2022-11-22T16:33:26.521Z,24.20
2022-11-22T16:35:54.973Z,27.47
2022-11-22T16:38:21.843Z,30.17
2022-11-22T16:40:48.549Z,24.97
2022-11-22T16:43:23.258Z,26.03
2022-11-22T16:45:50.442Z,20.10
2022-11-22T16:48:37.901Z,32.33
2022-11-22T16:51:06.493Z,23.17
2022-11-22T16:53:49.561Z,33.77
2022-11-22T16:56:21.476Z,34.13
2022-11-22T16:58:48.959Z,29.63
2022-11-22T17:01:17.461Z,20.43
2022-11-22T17:03:45.562Z,21.07
2022-11-22T17:06:21.484Z,24.10
2022-11-22T17:08:52.990Z,18.97
2022-11-22T17:11:21.931Z,18.67
2022-11-22T17:13:48.773Z,18.70
2022-11-22T17:16:17.915Z,24.03
2022-11-22T17:18:44.846Z,19.10
2022-11-22T17:21:37.476Z,18.80
2022-11-22T17:24:06.627Z,35.03
2022-11-22T17:26:34.966Z,25.20
2022-11-22T17:29:01.556Z,27.40
2022-11-22T17:31:29.075Z,19.90
2022-11-22T17:33:57.881Z,16.20
2022-11-22T17:36:24.312Z,18.00
2022-11-22T17:38:50.838Z,16.20
2022-11-22T17:41:17.348Z,18.07
2022-11-22T17:43:44.038Z,18.70
2022-11-22T17:46:10.590Z,22.47
2022-11-22T17:48:37.209Z,23.97
2022-11-22T17:51:07.772Z,38.90
2022-11-22T17:53:34.993Z,33.50
2022-11-22T17:56:10.557Z,33.37
2022-11-22T17:58:38.678Z,23.43
2022-11-22T18:01:16.217Z,29.77
2022-11-22T18:03:43.161Z,42.00
2022-11-22T18:06:10.794Z,62.47
2022-11-22T18:08:38.270Z,47.40
2022-11-22T18:11:07.543Z,25.00
2022-11-22T18:13:36.876Z,17.37
2022-11-22T18:16:06.674Z,18.40
2022-11-22T18:21:21.189Z,17.43
2022-11-22T18:23:47.844Z,19.23
2022-11-22T18:26:38.126Z,19.63
2022-11-22T18:34:35.093Z,25.73
2022-11-22T18:37:03.566Z,26.40
2022-11-22T18:39:36.885Z,25.63
2022-11-22T18:42:23.500Z,37.07
2022-11-22T18:44:50.078Z,39.27
2022-11-22T18:47:17.203Z,32.20
2022-11-22T18:49:43.671Z,32.60
2022-11-22T18:52:13.380Z,26.83
2022-11-22T18:54:43.047Z,43.00
2022-11-22T18:57:09.710Z,41.97
2022-11-22T18:59:36.313Z,23.33
2022-11-22T19:02:02.800Z,31.97
2022-11-22T19:04:30.043Z,27.50
2022-11-22T19:06:56.740Z,39.97
2022-11-22T19:09:23.268Z,43.10
2022-11-22T19:11:51.847Z,28.87
2022-11-22T19:14:19.921Z,40.80
2022-11-22T19:16:46.443Z,33.10
2022-11-22T19:19:13.251Z,31.73
2022-11-22T19:21:39.732Z,22.00
2022-11-22T19:24:06.323Z,35.17
2022-11-22T19:26:32.819Z,30.57
2022-11-22T19:28:59.895Z,34.23
2022-11-22T19:31:28.776Z,30.50
2022-11-22T19:33:55.459Z,30.77
2022-11-22T19:36:27.900Z,24.87
2022-11-22T19:38:59.136Z,31.10
2022-11-22T19:41:26.030Z,25.57
2022-11-22T19:43:52.763Z,28.67
2022-11-22T19:46:20.115Z,18.20
2022-11-22T19:48:53.698Z,23.37
2022-11-22T19:51:21.098Z,19.93
2022-11-22T19:53:47.884Z,27.47
2022-11-22T19:56:16.314Z,19.70
2022-11-22T19:58:44.252Z,23.33
2022-11-22T20:01:12.831Z,19.83
2022-11-22T20:03:41.236Z,16.33
2022-11-22T20:06:09.703Z,30.67
2022-11-22T20:08:37.393Z,19.80
2022-11-22T20:11:10.065Z,15.07
2022-11-22T20:13:41.732Z,14.60
2022-11-22T20:16:10.877Z,15.33
2022-11-22T20:18:37.795Z,23.80
2022-11-22T20:21:05.361Z,12.63
2022-11-22T20:23:32.525Z,18.93
2022-11-22T20:26:11.510Z,20.23
2022-11-22T20:28:39.023Z,19.00
2022-11-22T20:31:07.736Z,15.83
2022-11-22T20:33:39.348Z,23.23
2022-11-22T20:36:10.605Z,23.70
2022-11-22T20:38:38.335Z,17.77
2022-11-22T20:41:06.385Z,15.53
2022-11-22T20:43:34.670Z,18.87
2022-11-22T20:46:11.380Z,20.20
2022-11-22T20:48:39.403Z,14.57
2022-11-22T20:51:08.533Z,14.30
2022-11-22T20:53:35.467Z,16.03
2022-11-22T20:56:02.374Z,16.70
2022-11-22T20:58:29.291Z,14.70
2022-11-22T21:00:56.607Z,12.13
2022-11-22T21:03:23.795Z,13.53
2022-11-22T21:05:52.182Z,20.57
2022-11-22T21:08:19.157Z,18.67
2022-11-22T21:10:45.690Z,17.33
2022-11-22T21:13:12.724Z,16.93
2022-11-22T21:15:39.383Z,17.07
2022-11-22T21:20:52.474Z,17.47
2022-11-22T21:23:19.238Z,10.60
2022-11-22T21:25:46.122Z,12.80
2022-11-22T21:28:12.588Z,12.13
2022-11-22T21:30:39.112Z,15.90
2022-11-22T21:33:05.725Z,19.27
2022-11-22T21:35:32.158Z,21.33
2022-11-22T21:37:58.628Z,17.03
2022-11-22T21:40:25.523Z,16.10
2022-11-22T21:42:51.970Z,16.57
2022-11-22T21:45:18.432Z,15.53
2022-11-22T21:47:47.402Z,25.83
2022-11-22T21:50:15.360Z,22.23
2022-11-22T21:52:42.481Z,17.50
2022-11-22T21:55:09.759Z,14.57
2022-11-22T21:57:36.357Z,22.47
2022-11-22T22:00:04.768Z,24.77
2022-11-22T22:02:32.763Z,18.00
2022-11-22T22:04:59.423Z,17.43
2022-11-22T22:07:50.699Z,16.63
2022-11-22T22:10:13.748Z,17.23
2022-11-22T22:12:41.041Z,16.57
2022-11-22T22:15:10.050Z,19.03
2022-11-22T22:17:36.528Z,19.23
2022-11-22T22:20:03.226Z,18.97
2022-11-22T22:22:29.783Z,14.50
2022-11-22T22:24:56.286Z,15.70
2022-11-22T22:27:22.813Z,17.87
2022-11-22T22:29:49.421Z,15.97
2022-11-22T22:32:15.916Z,13.53
2022-11-22T22:34:42.480Z,18.23
2022-11-22T22:37:09.081Z,21.83
2022-11-22T22:39:35.555Z,17.13
2022-11-22T22:42:02.257Z,18.67
2022-11-22T22:44:29.532Z,28.57
2022-11-22T22:46:55.974Z,15.93
2022-11-22T22:49:22.507Z,12.63
2022-11-22T22:51:51.411Z,10.27
2022-11-22T22:54:17.940Z,10.57
2022-11-22T22:56:45.092Z,12.33
2022-11-22T22:59:11.519Z,13.77
2022-11-22T23:01:38.133Z,18.90
2022-11-22T23:04:05.074Z,16.87
2022-11-22T23:06:34.550Z,17.93
2022-11-22T23:09:02.117Z,27.37
2022-11-22T23:11:48.811Z,13.13
2022-11-22T23:14:18.599Z,15.47
2022-11-22T23:16:45.453Z,12.83
2022-11-22T23:19:12.108Z,13.27
2022-11-22T23:21:38.748Z,24.27
2022-11-22T23:24:05.890Z,21.17
2022-11-22T23:26:32.802Z,20.97
2022-11-22T23:28:59.724Z,25.00
2022-11-22T23:31:26.982Z,24.83
2022-11-22T23:33:53.749Z,13.70
2022-11-22T23:36:21.459Z,23.50
2022-11-22T23:38:48.043Z,21.83
2022-11-22T23:41:21.990Z,13.53
2022-11-22T23:43:53.272Z,19.27
2022-11-22T23:46:20.047Z,11.90
2022-11-22T23:48:48.048Z,18.07
2022-11-22T23:51:15.179Z,15.07
2022-11-22T23:53:41.984Z,16.40
2022-11-22T23:56:21.621Z,15.40
2022-11-22T23:58:48.593Z,12.17
